Air Navigation Services of Czech Republic
Airport: LKKV Updated:  20.09.2021 17:30:28  UTC
 METAR LKKV 20.09. 17:30 ...
METAR LKKV 201730Z VRB02KT 9999 BKN043 09/02 Q1022 RMK REG QNH 1017=
 TAF LKKV 20.09. 17:00 ...
TAF LKKV 201700Z 2018/2200 04005KT 9999 BKN036      PROB30 TEMPO 2101/2107 VRB02KT 3000 BR BKN013=